sensor_id;sensor_type;location;lat;lon;timestamp;P1;durP1;ratioP1;P2;durP2;ratioP2
68854;SDS011;69984;-43.570;172.580;2024-01-07T00:00:43;1.92;;;0.43;;
68854;SDS011;69984;-43.570;172.580;2024-01-07T00:03:10;2.17;;;0.32;;
68854;SDS011;69984;-43.570;172.580;2024-01-07T00:05:37;1.13;;;0.28;;
68854;SDS011;69984;-43.570;172.580;2024-01-07T00:08:04;0.47;;;0.28;;
68854;SDS011;69984;-43.570;172.580;2024-01-07T00:10:32;0.25;;;0.20;;
68854;SDS011;69984;-43.570;172.580;2024-01-07T00:12:59;2.65;;;0.20;;
68854;SDS011;69984;-43.570;172.580;2024-01-07T00:15:26;2.65;;;0.30;;
68854;SDS011;69984;-43.570;172.580;2024-01-07T00:17:53;0.88;;;0.30;;
68854;SDS011;69984;-43.570;172.580;2024-01-07T00:20:20;6.53;;;0.22;;
68854;SDS011;69984;-43.570;172.580;2024-01-07T00:22:47;1.15;;;0.20;;
68854;SDS011;69984;-43.570;172.580;2024-01-07T00:25:14;3.05;;;0.20;;
68854;SDS011;69984;-43.570;172.580;2024-01-07T00:27:42;3.60;;;0.25;;
68854;SDS011;69984;-43.570;172.580;2024-01-07T00:30:10;1.05;;;0.35;;
68854;SDS011;69984;-43.570;172.580;2024-01-07T00:32:37;2.05;;;0.30;;
68854;SDS011;69984;-43.570;172.580;2024-01-07T00:35:04;0.10;;;0.10;;
68854;SDS011;69984;-43.570;172.580;2024-01-07T00:37:32;0.50;;;0.10;;
68854;SDS011;69984;-43.570;172.580;2024-01-07T00:40:00;5.90;;;0.20;;
68854;SDS011;69984;-43.570;172.580;2024-01-07T00:42:27;0.60;;;0.20;;
68854;SDS011;69984;-43.570;172.580;2024-01-07T00:44:54;0.93;;;0.20;;
68854;SDS011;69984;-43.570;172.580;2024-01-07T00:47:21;0.20;;;0.10;;
68854;SDS011;69984;-43.570;172.580;2024-01-07T00:49:48;0.32;;;0.13;;
68854;SDS011;69984;-43.570;172.580;2024-01-07T00:52:15;3.50;;;0.20;;
68854;SDS011;69984;-43.570;172.580;2024-01-07T00:54:42;0.68;;;0.30;;
68854;SDS011;69984;-43.570;172.580;2024-01-07T00:57:10;0.77;;;0.40;;
68854;SDS011;69984;-43.570;172.580;2024-01-07T00:59:38;2.78;;;0.20;;
68854;SDS011;69984;-43.570;172.580;2024-01-07T01:02:05;1.05;;;0.20;;
68854;SDS011;69984;-43.570;172.580;2024-01-07T01:04:32;0.63;;;0.20;;
68854;SDS011;69984;-43.570;172.580;2024-01-07T01:06:59;0.60;;;0.30;;
68854;SDS011;69984;-43.570;172.580;2024-01-07T01:09:27;1.83;;;0.30;;
68854;SDS011;69984;-43.570;172.580;2024-01-07T01:14:21;2.00;;;0.30;;
68854;SDS011;69984;-43.570;172.580;2024-01-07T01:16:48;1.85;;;0.10;;
68854;SDS011;69984;-43.570;172.580;2024-01-07T01:19:15;1.75;;;0.40;;
68854;SDS011;69984;-43.570;172.580;2024-01-07T01:21:43;4.68;;;0.40;;
68854;SDS011;69984;-43.570;172.580;2024-01-07T01:24:10;0.93;;;0.20;;
68854;SDS011;69984;-43.570;172.580;2024-01-07T01:26:38;0.45;;;0.20;;
68854;SDS011;69984;-43.570;172.580;2024-01-07T01:29:05;3.22;;;0.22;;
68854;SDS011;69984;-43.570;172.580;2024-01-07T01:31:32;4.88;;;0.20;;
68854;SDS011;69984;-43.570;172.580;2024-01-07T01:33:59;8.57;;;0.40;;
68854;SDS011;69984;-43.570;172.580;2024-01-07T01:36:26;0.90;;;0.20;;
68854;SDS011;69984;-43.570;172.580;2024-01-07T01:38:53;1.33;;;0.20;;
68854;SDS011;69984;-43.570;172.580;2024-01-07T01:41:20;2.95;;;0.68;;
68854;SDS011;69984;-43.570;172.580;2024-01-07T01:43:47;1.35;;;0.40;;
68854;SDS011;69984;-43.570;172.580;2024-01-07T01:46:14;1.52;;;0.30;;
68854;SDS011;69984;-43.570;172.580;2024-01-07T01:48:41;5.97;;;0.50;;
68854;SDS011;69984;-43.570;172.580;2024-01-07T01:51:09;1.48;;;0.40;;
68854;SDS011;69984;-43.570;172.580;2024-01-07T01:53:37;0.28;;;0.15;;
68854;SDS011;69984;-43.570;172.580;2024-01-07T01:56:04;0.77;;;0.25;;
68854;SDS011;69984;-43.570;172.580;2024-01-07T01:58:33;1.17;;;0.20;;
68854;SDS011;69984;-43.570;172.580;2024-01-07T02:01:00;1.83;;;0.13;;
68854;SDS011;69984;-43.570;172.580;2024-01-07T02:03:28;1.10;;;0.30;;
68854;SDS011;69984;-43.570;172.580;2024-01-07T02:05:56;0.52;;;0.10;;
68854;SDS011;69984;-43.570;172.580;2024-01-07T02:08:24;1.48;;;0.22;;
68854;SDS011;69984;-43.570;172.580;2024-01-07T02:10:52;1.58;;;0.28;;
68854;SDS011;69984;-43.570;172.580;2024-01-07T02:13:19;0.73;;;0.30;;
68854;SDS011;69984;-43.570;172.580;2024-01-07T02:15:46;1.35;;;0.20;;
68854;SDS011;69984;-43.570;172.580;2024-01-07T02:18:14;1.35;;;0.20;;
68854;SDS011;69984;-43.570;172.580;2024-01-07T02:20:41;6.53;;;0.28;;
68854;SDS011;69984;-43.570;172.580;2024-01-07T02:23:09;2.85;;;0.28;;
68854;SDS011;69984;-43.570;172.580;2024-01-07T02:25:36;1.50;;;0.15;;
68854;SDS011;69984;-43.570;172.580;2024-01-07T02:28:04;0.82;;;0.20;;
68854;SDS011;69984;-43.570;172.580;2024-01-07T02:30:32;1.17;;;0.22;;
68854;SDS011;69984;-43.570;172.580;2024-01-07T02:33:02;3.30;;;0.20;;
68854;SDS011;69984;-43.570;172.580;2024-01-07T02:35:30;0.82;;;0.13;;
68854;SDS011;69984;-43.570;172.580;2024-01-07T02:37:57;0.80;;;0.28;;
68854;SDS011;69984;-43.570;172.580;2024-01-07T02:40:24;1.02;;;0.20;;
68854;SDS011;69984;-43.570;172.580;2024-01-07T02:42:51;0.50;;;0.20;;
68854;SDS011;69984;-43.570;172.580;2024-01-07T02:45:18;0.32;;;0.10;;
68854;SDS011;69984;-43.570;172.580;2024-01-07T02:47:45;1.02;;;0.15;;
68854;SDS011;69984;-43.570;172.580;2024-01-07T02:50:12;2.03;;;0.20;;
68854;SDS011;69984;-43.570;172.580;2024-01-07T02:52:39;2.28;;;0.20;;
68854;SDS011;69984;-43.570;172.580;2024-01-07T02:55:06;0.35;;;0.10;;
68854;SDS011;69984;-43.570;172.580;2024-01-07T02:57:34;4.38;;;0.40;;
68854;SDS011;69984;-43.570;172.580;2024-01-07T03:00:01;0.93;;;0.20;;
68854;SDS011;69984;-43.570;172.580;2024-01-07T03:02:30;0.88;;;0.30;;
68854;SDS011;69984;-43.570;172.580;2024-01-07T03:04:57;2.20;;;0.20;;
68854;SDS011;69984;-43.570;172.580;2024-01-07T03:07:25;2.28;;;0.38;;
68854;SDS011;69984;-43.570;172.580;2024-01-07T03:09:52;0.85;;;0.20;;
68854;SDS011;69984;-43.570;172.580;2024-01-07T03:12:19;3.17;;;0.20;;
68854;SDS011;69984;-43.570;172.580;2024-01-07T03:14:46;1.52;;;0.30;;
68854;SDS011;69984;-43.570;172.580;2024-01-07T03:17:13;0.45;;;0.10;;
68854;SDS011;69984;-43.570;172.580;2024-01-07T03:19:42;2.75;;;0.52;;
68854;SDS011;69984;-43.570;172.580;2024-01-07T03:22:10;2.97;;;1.00;;
68854;SDS011;69984;-43.570;172.580;2024-01-07T03:24:37;0.40;;;0.20;;
68854;SDS011;69984;-43.570;172.580;2024-01-07T03:27:04;4.07;;;0.40;;
68854;SDS011;69984;-43.570;172.580;2024-01-07T03:29:31;3.17;;;0.22;;
68854;SDS011;69984;-43.570;172.580;2024-01-07T03:31:58;3.22;;;0.30;;
68854;SDS011;69984;-43.570;172.580;2024-01-07T03:34:25;0.90;;;0.20;;
68854;SDS011;69984;-43.570;172.580;2024-01-07T03:36:52;0.70;;;0.32;;
68854;SDS011;69984;-43.570;172.580;2024-01-07T03:39:19;0.60;;;0.15;;
68854;SDS011;69984;-43.570;172.580;2024-01-07T03:41:46;2.35;;;0.93;;
68854;SDS011;69984;-43.570;172.580;2024-01-07T03:44:13;1.08;;;0.52;;
68854;SDS011;69984;-43.570;172.580;2024-01-07T03:46:40;6.07;;;0.35;;
68854;SDS011;69984;-43.570;172.580;2024-01-07T03:49:07;4.57;;;0.30;;
68854;SDS011;69984;-43.570;172.580;2024-01-07T03:51:34;2.55;;;0.30;;
68854;SDS011;69984;-43.570;172.580;2024-01-07T03:54:01;1.42;;;0.20;;
68854;SDS011;69984;-43.570;172.580;2024-01-07T03:56:28;0.22;;;0.17;;
68854;SDS011;69984;-43.570;172.580;2024-01-07T03:58:55;4.25;;;0.30;;
68854;SDS011;69984;-43.570;172.580;2024-01-07T04:01:22;3.47;;;0.38;;
68854;SDS011;69984;-43.570;172.580;2024-01-07T04:03:48;3.22;;;0.85;;
68854;SDS011;69984;-43.570;172.580;2024-01-07T04:06:15;0.85;;;0.20;;
68854;SDS011;69984;-43.570;172.580;2024-01-07T04:08:42;0.57;;;0.10;;
68854;SDS011;69984;-43.570;172.580;2024-01-07T04:11:09;1.40;;;0.88;;
68854;SDS011;69984;-43.570;172.580;2024-01-07T04:13:36;0.47;;;0.17;;
68854;SDS011;69984;-43.570;172.580;2024-01-07T04:16:03;1.13;;;0.30;;
68854;SDS011;69984;-43.570;172.580;2024-01-07T04:18:30;1.45;;;0.35;;
68854;SDS011;69984;-43.570;172.580;2024-01-07T04:20:57;4.65;;;0.25;;
68854;SDS011;69984;-43.570;172.580;2024-01-07T04:23:25;0.90;;;0.28;;
68854;SDS011;69984;-43.570;172.580;2024-01-07T04:25:52;0.57;;;0.15;;
68854;SDS011;69984;-43.570;172.580;2024-01-07T04:28:19;0.32;;;0.00;;
68854;SDS011;69984;-43.570;172.580;2024-01-07T04:30:46;0.80;;;0.30;;
68854;SDS011;69984;-43.570;172.580;2024-01-07T04:33:14;1.45;;;0.22;;
68854;SDS011;69984;-43.570;172.580;2024-01-07T04:35:41;1.33;;;0.40;;
68854;SDS011;69984;-43.570;172.580;2024-01-07T04:38:08;0.95;;;0.32;;
68854;SDS011;69984;-43.570;172.580;2024-01-07T04:40:35;0.93;;;0.25;;
68854;SDS011;69984;-43.570;172.580;2024-01-07T04:43:02;1.77;;;0.30;;
68854;SDS011;69984;-43.570;172.580;2024-01-07T04:45:29;0.50;;;0.20;;
68854;SDS011;69984;-43.570;172.580;2024-01-07T04:47:56;0.50;;;0.20;;
68854;SDS011;69984;-43.570;172.580;2024-01-07T04:50:23;3.13;;;0.28;;
68854;SDS011;69984;-43.570;172.580;2024-01-07T04:52:50;4.93;;;0.45;;
68854;SDS011;69984;-43.570;172.580;2024-01-07T04:55:17;0.63;;;0.20;;
68854;SDS011;69984;-43.570;172.580;2024-01-07T04:57:44;1.83;;;0.30;;
68854;SDS011;69984;-43.570;172.580;2024-01-07T05:00:11;1.77;;;0.28;;
68854;SDS011;69984;-43.570;172.580;2024-01-07T05:02:38;5.75;;;0.22;;
68854;SDS011;69984;-43.570;172.580;2024-01-07T05:05:07;3.88;;;0.43;;
68854;SDS011;69984;-43.570;172.580;2024-01-07T05:07:34;0.88;;;0.30;;
68854;SDS011;69984;-43.570;172.580;2024-01-07T05:10:01;1.05;;;0.28;;
68854;SDS011;69984;-43.570;172.580;2024-01-07T05:12:29;0.55;;;0.40;;
68854;SDS011;69984;-43.570;172.580;2024-01-07T05:14:56;0.40;;;0.20;;
68854;SDS011;69984;-43.570;172.580;2024-01-07T05:17:23;3.53;;;0.52;;
68854;SDS011;69984;-43.570;172.580;2024-01-07T05:19:50;5.00;;;0.60;;
68854;SDS011;69984;-43.570;172.580;2024-01-07T05:22:17;6.80;;;0.60;;
68854;SDS011;69984;-43.570;172.580;2024-01-07T05:24:44;1.27;;;0.35;;
68854;SDS011;69984;-43.570;172.580;2024-01-07T05:27:10;4.28;;;0.40;;
68854;SDS011;69984;-43.570;172.580;2024-01-07T05:29:38;0.73;;;0.30;;
68854;SDS011;69984;-43.570;172.580;2024-01-07T05:32:06;5.85;;;0.40;;
68854;SDS011;69984;-43.570;172.580;2024-01-07T05:34:33;1.38;;;0.25;;
68854;SDS011;69984;-43.570;172.580;2024-01-07T05:37:00;2.40;;;0.20;;
68854;SDS011;69984;-43.570;172.580;2024-01-07T05:39:27;2.60;;;0.20;;
68854;SDS011;69984;-43.570;172.580;2024-01-07T05:41:54;1.77;;;0.55;;
68854;SDS011;69984;-43.570;172.580;2024-01-07T05:44:21;3.20;;;0.40;;
68854;SDS011;69984;-43.570;172.580;2024-01-07T05:46:48;3.35;;;0.40;;
68854;SDS011;69984;-43.570;172.580;2024-01-07T05:49:15;4.38;;;0.50;;
68854;SDS011;69984;-43.570;172.580;2024-01-07T05:51:42;1.70;;;0.70;;
68854;SDS011;69984;-43.570;172.580;2024-01-07T05:54:09;1.60;;;0.50;;
68854;SDS011;69984;-43.570;172.580;2024-01-07T05:56:39;1.20;;;0.65;;
68854;SDS011;69984;-43.570;172.580;2024-01-07T05:59:06;5.20;;;0.60;;
68854;SDS011;69984;-43.570;172.580;2024-01-07T06:01:33;1.60;;;0.50;;
68854;SDS011;69984;-43.570;172.580;2024-01-07T06:04:00;5.30;;;0.73;;
68854;SDS011;69984;-43.570;172.580;2024-01-07T06:06:27;1.98;;;0.70;;
68854;SDS011;69984;-43.570;172.580;2024-01-07T06:08:54;1.80;;;0.60;;
68854;SDS011;69984;-43.570;172.580;2024-01-07T06:11:21;4.97;;;0.63;;
68854;SDS011;69984;-43.570;172.580;2024-01-07T06:13:48;1.13;;;0.50;;
68854;SDS011;69984;-43.570;172.580;2024-01-07T06:16:15;1.73;;;0.50;;
68854;SDS011;69984;-43.570;172.580;2024-01-07T06:18:42;4.90;;;1.42;;
68854;SDS011;69984;-43.570;172.580;2024-01-07T06:21:09;0.60;;;0.40;;
68854;SDS011;69984;-43.570;172.580;2024-01-07T06:23:36;2.30;;;0.65;;
68854;SDS011;69984;-43.570;172.580;2024-01-07T06:26:03;1.63;;;0.63;;
68854;SDS011;69984;-43.570;172.580;2024-01-07T06:28:31;1.98;;;0.55;;
68854;SDS011;69984;-43.570;172.580;2024-01-07T06:30:59;7.18;;;0.60;;
68854;SDS011;69984;-43.570;172.580;2024-01-07T06:33:28;2.30;;;0.60;;
68854;SDS011;69984;-43.570;172.580;2024-01-07T06:35:55;2.97;;;0.50;;
68854;SDS011;69984;-43.570;172.580;2024-01-07T06:38:22;1.75;;;0.50;;
68854;SDS011;69984;-43.570;172.580;2024-01-07T06:40:49;1.35;;;0.57;;
68854;SDS011;69984;-43.570;172.580;2024-01-07T06:43:16;2.70;;;0.60;;
68854;SDS011;69984;-43.570;172.580;2024-01-07T06:45:44;3.03;;;0.50;;
68854;SDS011;69984;-43.570;172.580;2024-01-07T06:48:11;5.32;;;0.65;;
68854;SDS011;69984;-43.570;172.580;2024-01-07T06:50:38;3.17;;;0.77;;
68854;SDS011;69984;-43.570;172.580;2024-01-07T06:53:05;1.17;;;0.45;;
68854;SDS011;69984;-43.570;172.580;2024-01-07T06:55:32;6.63;;;1.00;;
68854;SDS011;69984;-43.570;172.580;2024-01-07T06:57:59;1.13;;;0.93;;
68854;SDS011;69984;-43.570;172.580;2024-01-07T07:00:26;2.78;;;0.43;;
68854;SDS011;69984;-43.570;172.580;2024-01-07T07:02:53;1.23;;;0.38;;
68854;SDS011;69984;-43.570;172.580;2024-01-07T07:05:20;5.60;;;1.20;;
68854;SDS011;69984;-43.570;172.580;2024-01-07T07:07:47;3.03;;;0.65;;
68854;SDS011;69984;-43.570;172.580;2024-01-07T07:10:14;5.45;;;0.47;;
68854;SDS011;69984;-43.570;172.580;2024-01-07T07:12:41;1.52;;;0.60;;
68854;SDS011;69984;-43.570;172.580;2024-01-07T07:15:08;2.53;;;0.60;;
68854;SDS011;69984;-43.570;172.580;2024-01-07T07:17:37;1.02;;;0.52;;
68854;SDS011;69984;-43.570;172.580;2024-01-07T07:20:05;4.10;;;0.70;;
68854;SDS011;69984;-43.570;172.580;2024-01-07T07:22:33;2.05;;;0.68;;
68854;SDS011;69984;-43.570;172.580;2024-01-07T07:25:00;5.40;;;1.33;;
68854;SDS011;69984;-43.570;172.580;2024-01-07T07:27:28;2.53;;;0.70;;
68854;SDS011;69984;-43.570;172.580;2024-01-07T07:29:55;3.13;;;0.77;;
68854;SDS011;69984;-43.570;172.580;2024-01-07T07:32:22;1.13;;;0.70;;
68854;SDS011;69984;-43.570;172.580;2024-01-07T07:34:49;1.80;;;0.75;;
68854;SDS011;69984;-43.570;172.580;2024-01-07T07:37:16;2.13;;;0.63;;
68854;SDS011;69984;-43.570;172.580;2024-01-07T07:39:43;1.55;;;0.60;;
68854;SDS011;69984;-43.570;172.580;2024-01-07T07:42:10;2.30;;;0.73;;
68854;SDS011;69984;-43.570;172.580;2024-01-07T07:44:37;4.03;;;0.70;;
68854;SDS011;69984;-43.570;172.580;2024-01-07T07:47:04;3.42;;;0.75;;
68854;SDS011;69984;-43.570;172.580;2024-01-07T07:49:33;2.70;;;0.77;;
68854;SDS011;69984;-43.570;172.580;2024-01-07T07:52:02;3.33;;;0.80;;
68854;SDS011;69984;-43.570;172.580;2024-01-07T07:54:29;0.77;;;0.40;;
68854;SDS011;69984;-43.570;172.580;2024-01-07T07:56:56;2.92;;;1.02;;
68854;SDS011;69984;-43.570;172.580;2024-01-07T07:59:23;2.40;;;0.80;;
68854;SDS011;69984;-43.570;172.580;2024-01-07T08:01:50;2.33;;;0.75;;
68854;SDS011;69984;-43.570;172.580;2024-01-07T08:04:17;1.77;;;0.95;;
68854;SDS011;69984;-43.570;172.580;2024-01-07T08:06:45;3.53;;;1.05;;
68854;SDS011;69984;-43.570;172.580;2024-01-07T08:09:12;2.42;;;0.88;;
68854;SDS011;69984;-43.570;172.580;2024-01-07T08:11:39;3.50;;;0.98;;
68854;SDS011;69984;-43.570;172.580;2024-01-07T08:14:06;4.55;;;1.17;;
68854;SDS011;69984;-43.570;172.580;2024-01-07T08:16:34;2.67;;;0.77;;
68854;SDS011;69984;-43.570;172.580;2024-01-07T08:19:01;1.65;;;0.68;;
68854;SDS011;69984;-43.570;172.580;2024-01-07T08:21:28;1.35;;;0.82;;
68854;SDS011;69984;-43.570;172.580;2024-01-07T08:23:55;1.85;;;0.80;;
68854;SDS011;69984;-43.570;172.580;2024-01-07T08:26:22;4.20;;;0.88;;
68854;SDS011;69984;-43.570;172.580;2024-01-07T08:28:49;5.03;;;1.63;;
68854;SDS011;69984;-43.570;172.580;2024-01-07T08:31:17;2.47;;;0.80;;
68854;SDS011;69984;-43.570;172.580;2024-01-07T08:33:44;2.33;;;1.30;;
68854;SDS011;69984;-43.570;172.580;2024-01-07T08:36:11;2.30;;;1.00;;
68854;SDS011;69984;-43.570;172.580;2024-01-07T08:38:38;1.92;;;0.95;;
68854;SDS011;69984;-43.570;172.580;2024-01-07T08:41:05;3.22;;;0.85;;
68854;SDS011;69984;-43.570;172.580;2024-01-07T08:43:33;6.38;;;1.17;;
68854;SDS011;69984;-43.570;172.580;2024-01-07T08:46:00;3.22;;;1.15;;
68854;SDS011;69984;-43.570;172.580;2024-01-07T08:48:30;3.75;;;0.90;;
68854;SDS011;69984;-43.570;172.580;2024-01-07T08:50:57;4.90;;;0.80;;
68854;SDS011;69984;-43.570;172.580;2024-01-07T08:53:24;2.63;;;1.00;;
68854;SDS011;69984;-43.570;172.580;2024-01-07T08:55:51;4.90;;;1.10;;
68854;SDS011;69984;-43.570;172.580;2024-01-07T08:58:18;3.38;;;1.00;;
68854;SDS011;69984;-43.570;172.580;2024-01-07T09:00:45;1.05;;;0.88;;
68854;SDS011;69984;-43.570;172.580;2024-01-07T09:03:13;2.63;;;1.10;;
68854;SDS011;69984;-43.570;172.580;2024-01-07T09:05:40;9.70;;;1.00;;
68854;SDS011;69984;-43.570;172.580;2024-01-07T09:08:07;2.58;;;1.00;;
68854;SDS011;69984;-43.570;172.580;2024-01-07T09:10:34;1.58;;;0.90;;
68854;SDS011;69984;-43.570;172.580;2024-01-07T09:13:02;1.73;;;0.80;;
68854;SDS011;69984;-43.570;172.580;2024-01-07T09:15:30;2.50;;;0.90;;
68854;SDS011;69984;-43.570;172.580;2024-01-07T09:17:57;1.73;;;0.80;;
68854;SDS011;69984;-43.570;172.580;2024-01-07T09:20:24;4.03;;;0.95;;
68854;SDS011;69984;-43.570;172.580;2024-01-07T09:22:51;2.45;;;0.85;;
68854;SDS011;69984;-43.570;172.580;2024-01-07T09:25:17;1.58;;;0.90;;
68854;SDS011;69984;-43.570;172.580;2024-01-07T09:27:44;3.20;;;0.75;;
68854;SDS011;69984;-43.570;172.580;2024-01-07T09:30:12;3.58;;;0.60;;
68854;SDS011;69984;-43.570;172.580;2024-01-07T09:32:43;1.88;;;0.80;;
68854;SDS011;69984;-43.570;172.580;2024-01-07T09:35:10;1.27;;;0.60;;
68854;SDS011;69984;-43.570;172.580;2024-01-07T09:37:37;3.50;;;0.80;;
68854;SDS011;69984;-43.570;172.580;2024-01-07T09:40:04;2.60;;;0.70;;
68854;SDS011;69984;-43.570;172.580;2024-01-07T09:42:31;2.35;;;0.70;;
68854;SDS011;69984;-43.570;172.580;2024-01-07T09:45:02;2.00;;;0.60;;
68854;SDS011;69984;-43.570;172.580;2024-01-07T09:47:32;3.10;;;0.80;;
68854;SDS011;69984;-43.570;172.580;2024-01-07T09:50:00;1.38;;;0.68;;
68854;SDS011;69984;-43.570;172.580;2024-01-07T09:52:28;7.25;;;1.10;;
68854;SDS011;69984;-43.570;172.580;2024-01-07T09:54:58;2.00;;;0.85;;
68854;SDS011;69984;-43.570;172.580;2024-01-07T09:57:29;1.60;;;0.50;;
68854;SDS011;69984;-43.570;172.580;2024-01-07T09:59:56;2.85;;;0.75;;
68854;SDS011;69984;-43.570;172.580;2024-01-07T10:02:24;3.97;;;1.10;;
68854;SDS011;69984;-43.570;172.580;2024-01-07T10:04:51;3.60;;;0.60;;
68854;SDS011;69984;-43.570;172.580;2024-01-07T10:07:18;7.20;;;1.23;;
68854;SDS011;69984;-43.570;172.580;2024-01-07T10:09:45;1.70;;;0.68;;
68854;SDS011;69984;-43.570;172.580;2024-01-07T10:12:12;2.10;;;0.70;;
68854;SDS011;69984;-43.570;172.580;2024-01-07T10:14:39;1.15;;;0.60;;
68854;SDS011;69984;-43.570;172.580;2024-01-07T10:17:16;1.88;;;0.73;;
68854;SDS011;69984;-43.570;172.580;2024-01-07T10:19:46;2.08;;;0.95;;
68854;SDS011;69984;-43.570;172.580;2024-01-07T10:22:13;4.68;;;0.70;;
68854;SDS011;69984;-43.570;172.580;2024-01-07T10:24:41;3.20;;;0.60;;
68854;SDS011;69984;-43.570;172.580;2024-01-07T10:27:11;1.10;;;0.70;;
68854;SDS011;69984;-43.570;172.580;2024-01-07T10:29:38;1.00;;;0.50;;
68854;SDS011;69984;-43.570;172.580;2024-01-07T10:32:06;1.98;;;0.75;;
68854;SDS011;69984;-43.570;172.580;2024-01-07T10:34:33;2.15;;;0.75;;
68854;SDS011;69984;-43.570;172.580;2024-01-07T10:37:02;3.95;;;0.68;;
68854;SDS011;69984;-43.570;172.580;2024-01-07T10:39:34;1.02;;;0.70;;
68854;SDS011;69984;-43.570;172.580;2024-01-07T10:42:01;2.55;;;0.90;;
68854;SDS011;69984;-43.570;172.580;2024-01-07T10:44:29;2.15;;;0.70;;
68854;SDS011;69984;-43.570;172.580;2024-01-07T10:46:57;0.80;;;0.55;;
68854;SDS011;69984;-43.570;172.580;2024-01-07T10:49:26;1.48;;;0.40;;
68854;SDS011;69984;-43.570;172.580;2024-01-07T10:52:07;2.28;;;0.75;;
68854;SDS011;69984;-43.570;172.580;2024-01-07T10:57:27;0.63;;;0.50;;
68854;SDS011;69984;-43.570;172.580;2024-01-07T11:00:16;6.38;;;0.70;;
68854;SDS011;69984;-43.570;172.580;2024-01-07T11:03:04;1.08;;;0.50;;
68854;SDS011;69984;-43.570;172.580;2024-01-07T11:05:44;2.20;;;0.57;;
68854;SDS011;69984;-43.570;172.580;2024-01-07T11:11:01;1.13;;;0.57;;
68854;SDS011;69984;-43.570;172.580;2024-01-07T11:13:42;1.08;;;0.60;;
68854;SDS011;69984;-43.570;172.580;2024-01-07T11:16:10;1.55;;;0.68;;
68854;SDS011;69984;-43.570;172.580;2024-01-07T11:18:38;0.90;;;0.40;;
68854;SDS011;69984;-43.570;172.580;2024-01-07T11:21:11;5.32;;;0.70;;
68854;SDS011;69984;-43.570;172.580;2024-01-07T11:23:47;5.47;;;0.82;;
68854;SDS011;69984;-43.570;172.580;2024-01-07T11:26:14;1.98;;;0.77;;
68854;SDS011;69984;-43.570;172.580;2024-01-07T11:28:51;3.15;;;0.57;;
68854;SDS011;69984;-43.570;172.580;2024-01-07T11:31:43;0.60;;;0.50;;
68854;SDS011;69984;-43.570;172.580;2024-01-07T11:34:09;1.70;;;0.55;;
68854;SDS011;69984;-43.570;172.580;2024-01-07T11:36:37;1.80;;;0.60;;
68854;SDS011;69984;-43.570;172.580;2024-01-07T11:39:04;0.35;;;0.35;;
68854;SDS011;69984;-43.570;172.580;2024-01-07T11:41:34;1.13;;;0.50;;
68854;SDS011;69984;-43.570;172.580;2024-01-07T11:44:03;2.60;;;0.90;;
68854;SDS011;69984;-43.570;172.580;2024-01-07T11:46:31;0.30;;;0.30;;
68854;SDS011;69984;-43.570;172.580;2024-01-07T11:48:58;1.95;;;0.50;;
68854;SDS011;69984;-43.570;172.580;2024-01-07T11:51:26;1.58;;;0.80;;
68854;SDS011;69984;-43.570;172.580;2024-01-07T11:53:54;1.38;;;0.77;;
68854;SDS011;69984;-43.570;172.580;2024-01-07T11:56:21;2.13;;;0.63;;
68854;SDS011;69984;-43.570;172.580;2024-01-07T11:58:48;4.10;;;0.70;;
68854;SDS011;69984;-43.570;172.580;2024-01-07T12:01:15;1.13;;;0.43;;
68854;SDS011;69984;-43.570;172.580;2024-01-07T12:03:45;2.95;;;0.50;;
68854;SDS011;69984;-43.570;172.580;2024-01-07T12:06:13;1.63;;;0.55;;
68854;SDS011;69984;-43.570;172.580;2024-01-07T12:08:43;2.13;;;0.63;;
68854;SDS011;69984;-43.570;172.580;2024-01-07T12:11:11;0.80;;;0.52;;
68854;SDS011;69984;-43.570;172.580;2024-01-07T12:13:39;0.70;;;0.60;;
68854;SDS011;69984;-43.570;172.580;2024-01-07T12:16:08;1.30;;;0.73;;
68854;SDS011;69984;-43.570;172.580;2024-01-07T12:18:36;3.45;;;0.70;;
68854;SDS011;69984;-43.570;172.580;2024-01-07T12:21:03;2.88;;;0.63;;
68854;SDS011;69984;-43.570;172.580;2024-01-07T12:23:37;0.88;;;0.60;;
68854;SDS011;69984;-43.570;172.580;2024-01-07T12:26:08;3.45;;;0.70;;
68854;SDS011;69984;-43.570;172.580;2024-01-07T12:28:38;1.55;;;0.50;;
68854;SDS011;69984;-43.570;172.580;2024-01-07T12:31:05;1.60;;;0.43;;
68854;SDS011;69984;-43.570;172.580;2024-01-07T12:33:32;1.88;;;0.40;;
68854;SDS011;69984;-43.570;172.580;2024-01-07T12:35:59;1.23;;;0.70;;
68854;SDS011;69984;-43.570;172.580;2024-01-07T12:38:27;0.40;;;0.40;;
68854;SDS011;69984;-43.570;172.580;2024-01-07T12:40:54;5.20;;;0.60;;
68854;SDS011;69984;-43.570;172.580;2024-01-07T12:43:22;2.72;;;0.70;;
68854;SDS011;69984;-43.570;172.580;2024-01-07T12:45:49;3.67;;;0.52;;
68854;SDS011;69984;-43.570;172.580;2024-01-07T12:48:16;5.03;;;0.70;;
68854;SDS011;69984;-43.570;172.580;2024-01-07T12:50:43;3.03;;;0.43;;
68854;SDS011;69984;-43.570;172.580;2024-01-07T12:53:10;0.85;;;0.50;;
68854;SDS011;69984;-43.570;172.580;2024-01-07T12:55:37;1.95;;;0.73;;
68854;SDS011;69984;-43.570;172.580;2024-01-07T12:58:04;0.88;;;0.60;;
68854;SDS011;69984;-43.570;172.580;2024-01-07T13:00:31;2.25;;;0.60;;
68854;SDS011;69984;-43.570;172.580;2024-01-07T13:02:59;5.22;;;1.42;;
68854;SDS011;69984;-43.570;172.580;2024-01-07T13:05:27;1.35;;;0.70;;
68854;SDS011;69984;-43.570;172.580;2024-01-07T13:07:54;1.30;;;0.73;;
68854;SDS011;69984;-43.570;172.580;2024-01-07T13:10:21;2.88;;;0.70;;
68854;SDS011;69984;-43.570;172.580;2024-01-07T13:12:50;1.60;;;0.73;;
68854;SDS011;69984;-43.570;172.580;2024-01-07T13:15:17;1.10;;;0.47;;
68854;SDS011;69984;-43.570;172.580;2024-01-07T13:17:45;2.83;;;0.80;;
68854;SDS011;69984;-43.570;172.580;2024-01-07T13:20:15;1.52;;;0.55;;
68854;SDS011;69984;-43.570;172.580;2024-01-07T13:22:45;2.38;;;1.00;;
68854;SDS011;69984;-43.570;172.580;2024-01-07T13:25:13;7.88;;;0.95;;
68854;SDS011;69984;-43.570;172.580;2024-01-07T13:27:40;2.90;;;0.73;;
68854;SDS011;69984;-43.570;172.580;2024-01-07T13:30:10;3.92;;;0.88;;
68854;SDS011;69984;-43.570;172.580;2024-01-07T13:32:37;3.72;;;0.77;;
68854;SDS011;69984;-43.570;172.580;2024-01-07T13:35:04;2.78;;;0.90;;
68854;SDS011;69984;-43.570;172.580;2024-01-07T13:37:32;2.25;;;0.90;;
68854;SDS011;69984;-43.570;172.580;2024-01-07T13:39:59;3.60;;;0.80;;
68854;SDS011;69984;-43.570;172.580;2024-01-07T13:42:26;3.40;;;0.70;;
68854;SDS011;69984;-43.570;172.580;2024-01-07T13:44:53;3.97;;;0.80;;
68854;SDS011;69984;-43.570;172.580;2024-01-07T13:47:20;2.97;;;0.88;;
68854;SDS011;69984;-43.570;172.580;2024-01-07T13:49:47;3.67;;;0.70;;
68854;SDS011;69984;-43.570;172.580;2024-01-07T13:52:14;1.65;;;0.60;;
68854;SDS011;69984;-43.570;172.580;2024-01-07T13:54:41;2.00;;;0.60;;
68854;SDS011;69984;-43.570;172.580;2024-01-07T13:57:08;2.78;;;0.82;;
68854;SDS011;69984;-43.570;172.580;2024-01-07T13:59:35;1.48;;;0.60;;
68854;SDS011;69984;-43.570;172.580;2024-01-07T14:02:02;0.95;;;0.65;;
68854;SDS011;69984;-43.570;172.580;2024-01-07T14:04:30;4.15;;;0.90;;
68854;SDS011;69984;-43.570;172.580;2024-01-07T14:06:58;1.75;;;0.50;;
68854;SDS011;69984;-43.570;172.580;2024-01-07T14:09:26;4.43;;;0.52;;
68854;SDS011;69984;-43.570;172.580;2024-01-07T14:11:57;3.08;;;0.60;;
68854;SDS011;69984;-43.570;172.580;2024-01-07T14:14:24;0.68;;;0.63;;
68854;SDS011;69984;-43.570;172.580;2024-01-07T14:16:51;0.77;;;0.50;;
68854;SDS011;69984;-43.570;172.580;2024-01-07T14:19:18;1.67;;;0.80;;